Terminal Aerodrome Forecast
Issued by NWS Green Bay, WI

Home | Current Version | Previous Version | Graphics & Text | Print | Product List | Glossary On
Versions: 1 2 3 4 5 6 7 8 9 10 11 12 13 14 15 16 17 18 19 20 21 22 23 24 25 26 27 28 29 30 31
000
FTUS43 KGRB 181400 AAB
TAFGRB
TAF AMD
KGRB 181423Z 1814/1912 36007KT P6SM BKN030
     FM181800 01009KT P6SM SCT035 BKN120
      TEMPO 1818/1822 BKN035
     FM182200 04009G16KT P6SM SCT100
     FM190000 08006KT P6SM SCT100
      TEMPO 1908/1912 BKN100=

USA.gov is the U.S. government's official web portal to all federal, state and local government web resources and services.